createdAt,value
2022-08-19T00:01:31.943Z,24.20
2022-08-19T00:04:06.715Z,24.20
2022-08-19T00:06:36.594Z,24.30
2022-08-19T00:09:07.472Z,24.30
2022-08-19T00:11:37.087Z,24.20
2022-08-19T00:14:09.666Z,24.20
2022-08-19T00:16:38.687Z,24.20
2022-08-19T00:19:07.358Z,24.20
2022-08-19T00:21:40.690Z,24.20
2022-08-19T00:24:10.869Z,24.10
2022-08-19T00:26:40.157Z,24.10
2022-08-19T00:29:13.267Z,24.10
2022-08-19T00:31:42.890Z,24.10
2022-08-19T00:34:12.602Z,24.10
2022-08-19T00:36:41.814Z,24.00
2022-08-19T00:39:10.880Z,23.90
2022-08-19T00:41:39.365Z,23.90
2022-08-19T00:44:15.003Z,23.90
2022-08-19T00:46:45.740Z,23.90
2022-08-19T00:49:29.969Z,23.80
2022-08-19T00:52:01.772Z,23.80
2022-08-19T00:54:32.543Z,23.80
2022-08-19T00:57:01.715Z,23.80
2022-08-19T01:00:00.298Z,23.70
2022-08-19T01:02:20.496Z,23.60
2022-08-19T01:04:49.311Z,23.60
2022-08-19T01:07:19.751Z,23.50
2022-08-19T01:09:48.216Z,23.50
2022-08-19T01:12:17.320Z,23.40
2022-08-19T01:14:47.854Z,23.30
2022-08-19T01:17:17.218Z,23.30
2022-08-19T01:19:47.835Z,23.30
2022-08-19T01:22:28.687Z,23.30
2022-08-19T01:25:00.375Z,23.30
2022-08-19T01:27:29.921Z,23.30
2022-08-19T01:30:08.013Z,23.30
2022-08-19T01:32:36.390Z,23.30
2022-08-19T01:35:06.614Z,23.30
2022-08-19T01:37:44.946Z,23.40
2022-08-19T01:40:15.170Z,23.30
2022-08-19T01:42:43.448Z,23.40
2022-08-19T01:45:12.968Z,23.30
2022-08-19T01:47:41.596Z,23.40
2022-08-19T01:50:11.747Z,23.40
2022-08-19T01:52:40.889Z,23.30
2022-08-19T01:55:12.113Z,23.30
2022-08-19T01:57:43.709Z,23.30
2022-08-19T02:00:16.461Z,23.30
2022-08-19T02:02:45.026Z,23.30
2022-08-19T02:05:14.411Z,23.20
2022-08-19T02:07:43.102Z,23.20
2022-08-19T02:10:16.695Z,23.10
2022-08-19T02:12:47.643Z,23.10
2022-08-19T02:15:16.202Z,23.00
2022-08-19T02:17:46.045Z,23.10
2022-08-19T02:20:15.452Z,23.10
2022-08-19T02:22:44.521Z,23.20
2022-08-19T02:25:14.472Z,23.20
2022-08-19T02:27:43.858Z,23.30
2022-08-19T02:30:16.963Z,23.30
2022-08-19T02:32:45.651Z,23.30
2022-08-19T02:35:15.274Z,23.30
2022-08-19T02:38:01.229Z,23.20
2022-08-19T02:40:29.490Z,23.20
2022-08-19T02:42:57.856Z,23.20
2022-08-19T02:45:27.444Z,23.20
2022-08-19T02:47:55.698Z,23.10
2022-08-19T02:50:23.987Z,23.10
2022-08-19T02:52:52.475Z,23.10
2022-08-19T02:55:21.909Z,23.00
2022-08-19T02:57:50.217Z,23.10
2022-08-19T03:00:19.229Z,23.00
2022-08-19T03:02:49.835Z,23.10
2022-08-19T03:05:18.264Z,23.10
2022-08-19T03:07:53.472Z,23.10
2022-08-19T03:10:21.795Z,23.10
2022-08-19T03:12:49.949Z,23.10
2022-08-19T03:15:18.168Z,23.10
2022-08-19T03:17:46.368Z,23.10
2022-08-19T03:20:15.996Z,23.10
2022-08-19T03:22:44.251Z,23.10
2022-08-19T03:25:13.055Z,23.10
2022-08-19T03:27:41.181Z,23.10
2022-08-19T03:30:11.769Z,23.10
2022-08-19T03:32:52.465Z,23.20
2022-08-19T03:35:27.314Z,23.20
2022-08-19T03:37:55.459Z,23.20
2022-08-19T03:40:23.617Z,23.10
2022-08-19T03:42:51.923Z,23.10
2022-08-19T03:45:20.675Z,23.10
2022-08-19T03:47:48.959Z,23.10
2022-08-19T03:50:17.582Z,23.10
2022-08-19T03:52:50.938Z,23.10
2022-08-19T03:55:19.673Z,23.10
2022-08-19T03:57:49.649Z,23.20
2022-08-19T04:00:19.057Z,23.10
2022-08-19T04:02:58.533Z,23.20
2022-08-19T04:05:30.662Z,23.20
2022-08-19T04:08:00.599Z,23.20
2022-08-19T04:10:29.270Z,23.20
2022-08-19T04:12:57.641Z,23.20
2022-08-19T04:15:25.854Z,23.10
2022-08-19T04:17:54.266Z,23.10
2022-08-19T04:20:22.704Z,23.10
2022-08-19T04:22:51.015Z,23.10
2022-08-19T04:25:20.792Z,23.10
2022-08-19T04:27:49.601Z,23.10
2022-08-19T04:30:18.727Z,23.10
2022-08-19T04:32:47.010Z,23.20
2022-08-19T04:35:16.788Z,23.20
2022-08-19T04:37:46.965Z,23.20
2022-08-19T04:40:32.676Z,23.20
2022-08-19T04:43:03.053Z,23.30
2022-08-19T04:45:39.687Z,23.30
2022-08-19T04:48:26.433Z,23.40
2022-08-19T04:50:58.620Z,23.40
2022-08-19T04:53:29.609Z,23.50
2022-08-19T04:55:58.532Z,23.50
2022-08-19T04:58:29.501Z,23.50
2022-08-19T05:00:58.179Z,23.50
2022-08-19T05:03:30.128Z,23.50
2022-08-19T05:05:59.440Z,23.40
2022-08-19T05:08:30.935Z,23.40
2022-08-19T05:11:00.115Z,23.40
2022-08-19T05:13:29.840Z,23.50
2022-08-19T05:15:59.545Z,23.50
2022-08-19T05:18:45.962Z,23.60
2022-08-19T05:21:35.755Z,23.60
2022-08-19T05:24:04.779Z,23.60
2022-08-19T05:26:33.128Z,23.50
2022-08-19T05:29:02.751Z,23.40
2022-08-19T05:31:31.084Z,23.30
2022-08-19T05:33:59.812Z,23.20
2022-08-19T05:36:28.246Z,23.20
2022-08-19T05:38:57.242Z,23.20
2022-08-19T05:41:30.487Z,23.10
2022-08-19T05:43:58.792Z,23.10
2022-08-19T05:46:28.479Z,23.00
2022-08-19T05:48:57.619Z,22.90
2022-08-19T05:51:28.982Z,22.90
2022-08-19T05:53:57.763Z,22.90
2022-08-19T05:56:26.589Z,22.90
2022-08-19T05:58:55.287Z,22.80
2022-08-19T06:01:29.003Z,22.90
2022-08-19T06:03:57.385Z,22.90
2022-08-19T06:06:25.617Z,22.90
2022-08-19T06:08:53.948Z,22.90
2022-08-19T06:11:25.459Z,22.90
2022-08-19T06:13:59.778Z,22.90
2022-08-19T06:16:32.695Z,22.90
2022-08-19T06:19:04.981Z,22.80
2022-08-19T06:21:33.337Z,22.70
2022-08-19T06:24:02.159Z,22.70
2022-08-19T06:26:30.741Z,22.80
2022-08-19T06:28:59.072Z,22.80
2022-08-19T06:31:30.347Z,22.80
2022-08-19T06:33:58.596Z,22.90
2022-08-19T06:36:32.849Z,23.00
2022-08-19T06:39:01.982Z,23.00
2022-08-19T06:41:31.220Z,23.00
2022-08-19T06:43:59.910Z,23.10
2022-08-19T06:46:29.842Z,23.10
2022-08-19T06:49:03.962Z,23.30
2022-08-19T06:51:34.786Z,23.40
2022-08-19T06:54:19.416Z,23.60
2022-08-19T06:56:48.889Z,23.70
2022-08-19T06:59:19.865Z,23.80
2022-08-19T07:01:51.451Z,23.80
2022-08-19T07:04:22.490Z,24.00
2022-08-19T07:06:55.094Z,24.10
2022-08-19T07:09:24.156Z,24.20
2022-08-19T07:11:54.590Z,24.30
2022-08-19T07:14:26.179Z,24.30
2022-08-19T07:16:58.415Z,24.50
2022-08-19T07:19:28.867Z,24.60
2022-08-19T07:21:57.875Z,24.70
2022-08-19T07:24:27.987Z,24.80
2022-08-19T07:27:03.750Z,24.90
2022-08-19T07:29:38.066Z,25.10
2022-08-19T07:32:11.621Z,25.20
2022-08-19T07:34:41.694Z,25.40
2022-08-19T07:37:11.135Z,25.40
2022-08-19T07:39:40.846Z,25.70
2022-08-19T07:42:11.335Z,25.80
2022-08-19T07:44:43.231Z,25.90
2022-08-19T07:47:50.120Z,26.10
2022-08-19T07:50:12.189Z,26.10
2022-08-19T07:52:40.964Z,26.30
2022-08-19T07:55:39.891Z,26.50
2022-08-19T07:57:59.473Z,26.90
2022-08-19T08:00:27.969Z,27.30
2022-08-19T08:02:57.763Z,27.60
2022-08-19T08:05:44.446Z,27.90
2022-08-19T08:08:44.234Z,28.30
2022-08-19T08:11:15.570Z,28.80
2022-08-19T08:13:44.669Z,29.10
2022-08-19T08:16:14.354Z,29.40
2022-08-19T08:18:50.783Z,30.00
2022-08-19T08:21:21.655Z,30.60
2022-08-19T08:23:52.087Z,31.10
2022-08-19T08:26:21.569Z,31.30
2022-08-19T08:28:50.250Z,31.60
2022-08-19T08:31:19.656Z,32.00
2022-08-19T08:33:49.803Z,32.30
2022-08-19T08:36:18.476Z,32.60
2022-08-19T08:38:48.104Z,32.80
2022-08-19T08:41:24.593Z,33.00
2022-08-19T08:43:54.482Z,32.90
2022-08-19T08:46:31.702Z,33.00
2022-08-19T08:49:06.630Z,33.20
2022-08-19T08:51:37.531Z,33.60
2022-08-19T08:54:10.059Z,33.80
2022-08-19T08:56:40.489Z,33.90
2022-08-19T08:59:22.930Z,33.60
2022-08-19T09:01:51.262Z,33.30
2022-08-19T09:04:21.239Z,33.00
2022-08-19T09:06:57.514Z,32.90
2022-08-19T09:09:33.605Z,32.60
2022-08-19T09:12:12.000Z,32.80
2022-08-19T09:14:51.789Z,32.70
2022-08-19T09:17:31.805Z,32.90
2022-08-19T09:20:09.669Z,33.40
2022-08-19T09:22:38.895Z,34.30
2022-08-19T09:25:08.322Z,35.00
2022-08-19T09:27:42.708Z,35.40
2022-08-19T09:30:14.290Z,35.80
2022-08-19T09:32:44.044Z,36.20
2022-08-19T09:35:16.139Z,36.50
2022-08-19T09:37:45.050Z,37.00
2022-08-19T09:40:14.592Z,37.20
2022-08-19T09:42:49.813Z,37.30
2022-08-19T09:45:22.283Z,37.70
2022-08-19T09:47:53.846Z,38.00
2022-08-19T09:50:25.474Z,38.10
2022-08-19T09:52:57.574Z,38.40
2022-08-19T09:55:30.960Z,38.50
2022-08-19T09:58:01.114Z,38.40
2022-08-19T10:00:29.450Z,38.40
2022-08-19T10:02:57.595Z,38.50
2022-08-19T10:05:45.040Z,38.60
2022-08-19T10:08:17.913Z,38.50
2022-08-19T10:10:47.236Z,37.60
2022-08-19T10:13:17.973Z,37.10
2022-08-19T10:15:48.146Z,36.80
2022-08-19T10:18:19.317Z,36.40
2022-08-19T10:20:51.534Z,36.10
2022-08-19T10:23:22.301Z,35.90
2022-08-19T10:25:50.913Z,35.30
2022-08-19T10:28:19.725Z,35.10
2022-08-19T10:30:48.671Z,34.50
2022-08-19T10:33:27.120Z,34.30
2022-08-19T10:36:10.586Z,34.00
2022-08-19T10:38:39.393Z,33.50
2022-08-19T10:41:20.817Z,33.10
2022-08-19T10:43:49.297Z,32.60
2022-08-19T10:46:18.011Z,32.00
2022-08-19T10:48:47.706Z,31.40
2022-08-19T10:51:37.747Z,31.10
2022-08-19T10:54:15.969Z,30.50
2022-08-19T10:56:56.112Z,29.80
2022-08-19T10:59:33.813Z,29.30
2022-08-19T11:02:06.244Z,28.80
2022-08-19T11:04:35.890Z,28.10
2022-08-19T11:07:06.975Z,27.70
2022-08-19T11:09:40.780Z,27.40
2022-08-19T11:12:10.656Z,27.00
2022-08-19T11:14:40.485Z,26.70
2022-08-19T11:17:09.117Z,26.50
2022-08-19T11:19:37.594Z,26.20
2022-08-19T11:22:10.730Z,26.00
2022-08-19T11:24:44.444Z,26.00
2022-08-19T11:27:12.938Z,26.00
2022-08-19T11:29:41.230Z,26.10
2022-08-19T11:32:11.860Z,26.20
2022-08-19T11:34:40.208Z,26.60
2022-08-19T11:37:10.204Z,26.80
2022-08-19T11:39:39.058Z,27.30
2022-08-19T11:42:23.164Z,28.00
2022-08-19T11:44:51.404Z,28.30
2022-08-19T11:47:20.156Z,28.60
2022-08-19T11:49:48.691Z,28.70
2022-08-19T11:52:18.449Z,28.70
2022-08-19T11:54:46.650Z,28.60
2022-08-19T11:57:17.811Z,28.80
2022-08-19T11:59:51.146Z,29.50
2022-08-19T12:02:20.138Z,30.30
2022-08-19T12:04:48.540Z,30.90
2022-08-19T12:07:18.376Z,31.40
2022-08-19T12:09:46.633Z,31.60
2022-08-19T12:12:17.457Z,31.30
2022-08-19T12:14:47.700Z,31.10
2022-08-19T12:17:16.323Z,30.90
2022-08-19T12:19:44.621Z,30.60
2022-08-19T12:22:13.455Z,30.50
2022-08-19T12:24:43.660Z,30.40
2022-08-19T12:27:12.606Z,30.50
2022-08-19T12:29:42.556Z,30.80
2022-08-19T12:32:12.314Z,31.00
2022-08-19T12:34:41.018Z,31.10
2022-08-19T12:37:10.074Z,30.90
2022-08-19T12:39:40.389Z,30.80
2022-08-19T12:42:10.515Z,30.70
2022-08-19T12:44:41.615Z,30.60
2022-08-19T12:47:11.347Z,30.20
2022-08-19T12:49:54.622Z,29.80
2022-08-19T12:52:25.474Z,29.60
2022-08-19T12:54:55.407Z,29.40
2022-08-19T12:57:32.049Z,29.20
2022-08-19T13:00:05.337Z,29.10
2022-08-19T13:02:39.005Z,28.90
2022-08-19T13:05:10.853Z,28.80
2022-08-19T13:07:39.588Z,28.70
2022-08-19T13:10:09.799Z,28.50
2022-08-19T13:12:39.537Z,28.60
2022-08-19T13:15:10.934Z,28.40
2022-08-19T13:17:40.905Z,28.30
2022-08-19T13:20:11.405Z,28.00
2022-08-19T13:22:40.598Z,28.00
2022-08-19T13:25:10.396Z,27.90
2022-08-19T13:27:41.038Z,27.80
2022-08-19T13:30:28.898Z,27.80
2022-08-19T13:33:16.228Z,27.80
2022-08-19T13:35:48.423Z,27.80
2022-08-19T13:38:18.951Z,27.80
2022-08-19T13:40:47.488Z,27.80
2022-08-19T13:43:22.810Z,27.60
2022-08-19T13:45:54.891Z,27.40
2022-08-19T13:48:24.668Z,27.40
2022-08-19T13:50:52.788Z,27.20
2022-08-19T13:53:21.389Z,26.90
2022-08-19T13:55:51.421Z,26.80
2022-08-19T13:58:21.142Z,26.80
2022-08-19T14:00:50.767Z,26.90
2022-08-19T14:03:19.003Z,27.00
2022-08-19T14:05:47.766Z,27.10
2022-08-19T14:08:16.144Z,27.20
2022-08-19T14:10:45.502Z,27.30
2022-08-19T14:13:18.298Z,27.30
2022-08-19T14:15:49.220Z,27.40
2022-08-19T14:18:18.623Z,27.60
2022-08-19T14:20:47.291Z,27.70
2022-08-19T14:23:15.752Z,27.90
2022-08-19T14:25:44.558Z,28.00
2022-08-19T14:28:12.773Z,28.20
2022-08-19T14:30:41.061Z,28.30
2022-08-19T14:33:10.832Z,28.40
2022-08-19T14:35:39.560Z,28.50
2022-08-19T14:38:09.187Z,28.60
2022-08-19T14:40:37.325Z,28.80
2022-08-19T14:43:07.222Z,28.90
2022-08-19T14:45:39.234Z,29.00
2022-08-19T14:48:19.118Z,28.70
2022-08-19T14:50:48.019Z,28.50
2022-08-19T14:53:17.865Z,28.50
2022-08-19T14:55:47.369Z,28.30
2022-08-19T14:58:28.964Z,28.30
2022-08-19T15:00:59.788Z,28.20
2022-08-19T15:03:30.043Z,28.20
2022-08-19T15:05:59.081Z,28.20
2022-08-19T15:08:28.535Z,28.10
2022-08-19T15:10:56.769Z,28.20
2022-08-19T15:13:26.117Z,28.10
2022-08-19T15:15:54.549Z,28.10
2022-08-19T15:18:22.810Z,28.10
2022-08-19T15:20:53.125Z,28.10
2022-08-19T15:23:23.076Z,28.00
2022-08-19T15:25:56.528Z,27.90
2022-08-19T15:28:25.069Z,27.90
2022-08-19T15:30:54.873Z,27.90
2022-08-19T15:33:23.160Z,27.70
2022-08-19T15:35:53.437Z,27.80
2022-08-19T15:38:25.789Z,27.70
2022-08-19T15:41:14.921Z,27.70
2022-08-19T15:43:44.235Z,27.80
2022-08-19T15:46:12.488Z,27.70
2022-08-19T15:48:45.499Z,27.80
2022-08-19T15:51:26.196Z,27.80
2022-08-19T15:53:55.364Z,27.90
2022-08-19T15:56:27.177Z,28.00
2022-08-19T15:59:13.735Z,28.00
2022-08-19T16:01:59.383Z,28.00
2022-08-19T16:04:44.713Z,28.10
2022-08-19T16:07:14.293Z,28.10
2022-08-19T16:09:50.655Z,28.20
2022-08-19T16:12:19.397Z,28.30
2022-08-19T16:14:48.611Z,28.30
2022-08-19T16:17:16.848Z,28.20
2022-08-19T16:19:47.573Z,28.20
2022-08-19T16:22:19.712Z,28.10
2022-08-19T16:24:47.840Z,28.00
2022-08-19T16:27:16.572Z,27.90
2022-08-19T16:29:44.871Z,27.80
2022-08-19T16:32:14.119Z,27.80
2022-08-19T16:34:43.916Z,27.80
2022-08-19T16:37:12.363Z,27.70
2022-08-19T16:39:43.744Z,27.70
2022-08-19T16:42:14.064Z,27.60
2022-08-19T16:44:45.200Z,27.60
2022-08-19T16:47:14.408Z,27.60
2022-08-19T16:49:54.367Z,27.50
2022-08-19T16:52:27.126Z,27.50
2022-08-19T16:54:57.016Z,27.50
2022-08-19T16:57:25.144Z,27.50
2022-08-19T16:59:53.597Z,27.50
2022-08-19T17:02:23.635Z,27.50
2022-08-19T17:04:59.300Z,27.40
2022-08-19T17:07:28.356Z,27.40
2022-08-19T17:09:58.721Z,27.30
2022-08-19T17:12:31.542Z,27.30
2022-08-19T17:15:02.228Z,27.30
2022-08-19T17:17:30.961Z,27.30
2022-08-19T17:20:00.475Z,27.20
2022-08-19T17:22:29.091Z,27.10
2022-08-19T17:24:58.982Z,27.10
2022-08-19T17:27:32.542Z,27.00
2022-08-19T17:30:02.629Z,27.00
2022-08-19T17:32:34.380Z,27.00
2022-08-19T17:35:02.720Z,26.90
2022-08-19T17:37:31.018Z,26.90
2022-08-19T17:40:00.766Z,26.80
2022-08-19T17:42:29.081Z,26.70
2022-08-19T17:44:59.287Z,26.70
2022-08-19T17:47:28.472Z,26.70
2022-08-19T17:49:57.385Z,26.60
2022-08-19T17:52:25.616Z,26.50
2022-08-19T17:54:53.823Z,26.50
2022-08-19T17:57:23.573Z,26.50
2022-08-19T17:59:52.192Z,26.40
2022-08-19T18:02:21.851Z,26.40
2022-08-19T18:04:50.803Z,26.40
2022-08-19T18:07:21.713Z,26.40
2022-08-19T18:09:52.865Z,26.30
2022-08-19T18:12:26.880Z,26.30
2022-08-19T18:14:55.250Z,26.30
2022-08-19T18:17:24.490Z,26.30
2022-08-19T18:19:52.988Z,26.30
2022-08-19T18:22:27.219Z,26.20
2022-08-19T18:24:56.105Z,26.20
2022-08-19T18:27:25.993Z,26.20
2022-08-19T18:29:59.821Z,26.20
2022-08-19T18:32:30.269Z,26.20
2022-08-19T18:34:58.725Z,26.10
2022-08-19T18:37:27.673Z,26.10
2022-08-19T18:40:13.506Z,26.10
2022-08-19T18:43:02.464Z,26.00
2022-08-19T18:45:48.481Z,26.00
2022-08-19T18:48:34.346Z,26.00
2022-08-19T18:51:03.368Z,25.90
2022-08-19T18:53:34.208Z,25.90
2022-08-19T18:56:03.594Z,25.90
2022-08-19T18:58:34.952Z,25.80
2022-08-19T19:01:11.181Z,25.80
2022-08-19T19:03:41.836Z,25.70
2022-08-19T19:06:10.114Z,25.80
2022-08-19T19:08:38.891Z,25.80
2022-08-19T19:11:07.753Z,25.70
2022-08-19T19:13:39.868Z,25.70
2022-08-19T19:16:10.111Z,25.40
2022-08-19T19:18:38.428Z,25.10
2022-08-19T19:21:07.575Z,24.80
2022-08-19T19:23:35.742Z,24.50
2022-08-19T19:26:03.950Z,24.20
2022-08-19T19:28:32.332Z,24.10
2022-08-19T19:31:02.095Z,24.00
2022-08-19T19:33:30.350Z,23.90
2022-08-19T19:35:58.698Z,23.90
2022-08-19T19:38:26.900Z,24.00
2022-08-19T19:40:55.115Z,24.10
2022-08-19T19:43:23.445Z,24.10
2022-08-19T19:45:52.047Z,24.20
2022-08-19T19:48:21.899Z,24.30
2022-08-19T19:50:54.178Z,24.30
2022-08-19T19:53:26.185Z,24.30
2022-08-19T19:55:58.885Z,24.40
2022-08-19T19:58:28.965Z,24.40
2022-08-19T20:00:59.015Z,24.30
2022-08-19T20:03:30.072Z,24.10
2022-08-19T20:05:59.609Z,23.70
2022-08-19T20:08:45.936Z,23.30
2022-08-19T20:11:16.898Z,22.80
2022-08-19T20:13:45.093Z,22.50
2022-08-19T20:16:13.512Z,22.30
2022-08-19T20:18:43.881Z,22.10
2022-08-19T20:21:12.421Z,21.90
2022-08-19T20:23:40.705Z,21.80
2022-08-19T20:26:21.402Z,21.60
2022-08-19T20:28:58.382Z,21.50
2022-08-19T20:31:57.582Z,21.40
2022-08-19T20:34:29.549Z,21.30
2022-08-19T20:36:57.916Z,21.30
2022-08-19T20:39:26.143Z,21.10
2022-08-19T20:41:56.435Z,21.20
2022-08-19T20:44:25.507Z,21.20
2022-08-19T20:46:55.579Z,21.30
2022-08-19T20:49:27.181Z,21.30
2022-08-19T20:51:58.509Z,21.30
2022-08-19T20:54:27.405Z,21.40
2022-08-19T20:56:55.618Z,21.40
2022-08-19T20:59:25.845Z,21.40
2022-08-19T21:01:54.950Z,21.50
2022-08-19T21:04:23.416Z,21.50
2022-08-19T21:06:51.989Z,21.50
2022-08-19T21:09:23.261Z,21.50
2022-08-19T21:11:51.509Z,21.50
2022-08-19T21:14:20.442Z,21.50
2022-08-19T21:16:50.012Z,21.50
2022-08-19T21:19:23.329Z,21.60
2022-08-19T21:21:52.272Z,21.60
2022-08-19T21:24:21.941Z,21.60
2022-08-19T21:26:58.396Z,21.60
2022-08-19T21:29:26.585Z,21.60
2022-08-19T21:31:54.861Z,21.50
2022-08-19T21:34:23.029Z,21.50
2022-08-19T21:36:51.216Z,21.40
2022-08-19T21:39:19.444Z,21.30
2022-08-19T21:41:49.086Z,21.30
2022-08-19T21:44:17.343Z,21.30
2022-08-19T21:46:45.556Z,21.30
2022-08-19T21:49:19.644Z,21.20
2022-08-19T21:51:47.894Z,21.20
2022-08-19T21:54:15.992Z,21.10
2022-08-19T21:56:44.269Z,21.10
2022-08-19T21:59:13.882Z,21.00
2022-08-19T22:01:44.941Z,21.00
2022-08-19T22:04:17.307Z,21.00
2022-08-19T22:06:45.994Z,21.00
2022-08-19T22:09:14.493Z,21.00
2022-08-19T22:11:44.369Z,21.00
2022-08-19T22:14:14.147Z,21.00
2022-08-19T22:16:43.152Z,20.90
2022-08-19T22:19:11.308Z,20.90
2022-08-19T22:21:40.391Z,20.90
2022-08-19T22:24:09.898Z,20.90
2022-08-19T22:26:38.268Z,20.90
2022-08-19T22:29:07.767Z,20.90
2022-08-19T22:31:38.241Z,20.80
2022-08-19T22:34:08.316Z,20.80
2022-08-19T22:36:36.543Z,20.70
2022-08-19T22:39:05.583Z,20.70
2022-08-19T22:41:34.204Z,20.70
2022-08-19T22:44:03.879Z,20.70
2022-08-19T22:46:34.328Z,20.60
2022-08-19T22:49:04.280Z,20.60
2022-08-19T22:51:49.504Z,20.60
2022-08-19T22:54:18.091Z,20.60
2022-08-19T22:56:46.384Z,20.60
2022-08-19T22:59:14.596Z,20.60
2022-08-19T23:01:42.961Z,20.60
2022-08-19T23:04:12.733Z,20.60
2022-08-19T23:06:42.283Z,20.60
2022-08-19T23:09:17.031Z,20.60
2022-08-19T23:11:45.758Z,20.70
2022-08-19T23:14:15.012Z,20.70
2022-08-19T23:16:50.438Z,20.70
2022-08-19T23:19:21.791Z,20.70
2022-08-19T23:21:50.180Z,20.70
2022-08-19T23:24:18.407Z,20.70
2022-08-19T23:27:00.456Z,20.80
2022-08-19T23:29:45.809Z,20.80
2022-08-19T23:32:16.201Z,20.80
2022-08-19T23:34:46.347Z,20.80
2022-08-19T23:37:14.763Z,20.80
2022-08-19T23:39:43.644Z,20.90
2022-08-19T23:42:13.949Z,20.90
2022-08-19T23:44:51.821Z,20.90
2022-08-19T23:47:20.895Z,20.90
2022-08-19T23:49:50.777Z,20.90
2022-08-19T23:52:19.426Z,20.90
2022-08-19T23:54:47.735Z,20.90
2022-08-19T23:57:16.033Z,20.90
2022-08-19T23:59:46.289Z,20.90
